TimeEST,TemperatureF,Dew PointF,Humidity,Sea Level PressureIn,VisibilityMPH,Wind Direction,Wind SpeedMPH,Gust SpeedMPH,PrecipitationIn,Events,Conditions,WindDirDegrees,DateUTC
12:25 AM,21.2,10.4,63,30.17,1.8,Calm,Calm,-,0.00,Snow,Light Snow,0,2013-02-02 05:25:00
12:50 AM,21.2,12.2,68,30.17,1.2,Calm,Calm,-,0.00,Snow,Light Snow,0,2013-02-02 05:50:00
12:54 AM,24.1,12.0,60,30.19,1.0,Calm,Calm,-,0.00,Snow,Light Snow,0,2013-02-02 05:54:00
1:02 AM,23.0,12.2,63,30.17,0.8,Calm,Calm,-,0.00,Snow,Light Snow,0,2013-02-02 06:02:00
1:54 AM,30.0,14.0,51,30.19,0.5,Calm,Calm,-,0.04,Snow,Snow,0,2013-02-02 06:54:00
2:13 AM,24.8,14.0,64,30.16,0.5,Calm,Calm,-,0.03,Snow,Snow,0,2013-02-02 07:13:00
2:21 AM,23.0,14.0,68,30.17,0.8,Calm,Calm,-,0.03,Snow,Light Snow,0,2013-02-02 07:21:00
2:36 AM,23.0,14.0,68,30.17,1.0,Calm,Calm,-,0.04,Snow,Light Snow,0,2013-02-02 07:36:00
2:42 AM,30.2,12.2,47,30.16,0.8,Calm,Calm,-,0.04,Snow,Light Snow,0,2013-02-02 07:42:00
2:49 AM,23.0,14.0,68,30.16,1.2,Calm,Calm,-,0.04,Snow,Light Snow,0,2013-02-02 07:49:00
2:54 AM,25.0,12.9,60,30.18,1.2,Calm,Calm,-,0.04,Snow,Light Snow,0,2013-02-02 07:54:00
3:05 AM,35.6,12.2,38,30.15,2.0,South,4.6,-,0.00,Snow,Light Snow,190,2013-02-02 08:05:00
3:15 AM,26.6,12.2,55,30.15,3.0,SSE,4.6,-,0.00,Snow,Light Snow,160,2013-02-02 08:15:00
3:54 AM,14.0,8.1,77,30.16,10.0,South,6.9,-,0.00,,Scattered Clouds,190,2013-02-02 08:54:00
4:54 AM,14.0,7.0,74,30.16,10.0,SSW,11.5,-,N/A,,Clear,200,2013-02-02 09:54:00
5:54 AM,12.9,6.1,74,30.16,10.0,SSW,6.9,-,N/A,,Overcast,200,2013-02-02 10:54:00
6:54 AM,28.0,5.0,38,30.15,10.0,South,8.1,-,N/A,,Partly Cloudy,190,2013-02-02 11:54:00
7:54 AM,28.9,6.1,38,30.16,10.0,SSW,8.1,-,N/A,,Overcast,200,2013-02-02 12:54:00
8:54 AM,28.9,6.1,38,30.15,10.0,SSW,9.2,-,N/A,,Overcast,200,2013-02-02 13:54:00
9:54 AM,30.0,6.1,36,30.13,10.0,South,10.4,-,0.00,,Overcast,190,2013-02-02 14:54:00
10:54 AM,30.0,6.1,36,30.12,10.0,South,12.7,-,N/A,,Overcast,190,2013-02-02 15:54:00
11:54 AM,32.0,6.1,34,30.09,10.0,SSW,10.4,-,0.00,,Overcast,200,2013-02-02 16:54:00
12:37 PM,28.4,8.6,43,30.05,1.8,SSW,15.0,-,0.00,Snow,Light Snow,210,2013-02-02 17:37:00
12:54 PM,30.0,10.9,45,30.06,1.2,SSW,11.5,-,0.00,Snow,Light Snow,200,2013-02-02 17:54:00
1:15 PM,30.2,10.4,44,30.04,2.5,SSW,13.8,-,0.00,Snow,Light Snow,200,2013-02-02 18:15:00
1:24 PM,30.2,10.4,44,30.03,3.0,South,9.2,19.6,0.00,Snow,Light Snow,190,2013-02-02 18:24:00
1:39 PM,30.2,12.2,47,30.02,2.5,South,12.7,19.6,0.00,Snow,Light Snow,180,2013-02-02 18:39:00
1:51 PM,30.2,12.2,47,30.02,3.0,South,11.5,-,0.00,Snow,Light Snow,180,2013-02-02 18:51:00
1:54 PM,30.0,12.0,47,30.04,4.0,South,12.7,-,0.00,Snow,Light Snow,190,2013-02-02 18:54:00
2:54 PM,30.0,10.9,45,30.02,8.0,South,13.8,-,0.00,,Overcast,180,2013-02-02 19:54:00
3:54 PM,32.0,10.9,42,30.02,10.0,South,9.2,-,N/A,,Overcast,180,2013-02-02 20:54:00
4:54 PM,32.0,10.9,42,30.01,10.0,South,8.1,-,N/A,,Overcast,190,2013-02-02 21:54:00
5:54 PM,33.1,12.0,42,30.01,10.0,South,6.9,-,N/A,,Overcast,170,2013-02-02 22:54:00
6:54 PM,34.0,12.9,42,30.01,10.0,South,5.8,-,N/A,,Overcast,170,2013-02-02 23:54:00
7:54 PM,26.1,12.9,58,30.02,10.0,SSE,3.5,-,N/A,,Overcast,160,2013-02-03 00:54:00
8:54 PM,21.0,10.9,65,30.02,10.0,Calm,Calm,-,N/A,,Overcast,0,2013-02-03 01:54:00
9:54 PM,-9999,-9999,N/A,29.99,10.0,SSE,5.8,-,N/A,,Overcast,160,2013-02-03 02:54:00
10:54 PM,18.0,12.0,78,30.00,10.0,South,6.9,-,N/A,,Partly Cloudy,180,2013-02-03 03:54:00
11:54 PM,12.0,9.0,88,29.99,10.0,South,4.6,-,N/A,,Clear,170,2013-02-03 04:54:00